sensor_id;sensor_type;location;lat;lon;timestamp;pressure;altitude;pressure_sealevel;temperature;humidity
34243;BME280;20504;43.214;27.920;2023-01-29T00:01:07;99759.47;;;5.57;100.00
34243;BME280;20504;43.214;27.920;2023-01-29T00:03:33;99808.06;;;5.34;100.00
34243;BME280;20504;43.214;27.920;2023-01-29T00:05:59;99773.31;;;5.45;100.00
34243;BME280;20504;43.214;27.920;2023-01-29T00:08:29;99810.78;;;5.33;100.00
34243;BME280;20504;43.214;27.920;2023-01-29T00:11:02;99762.09;;;5.57;100.00
34243;BME280;20504;43.214;27.920;2023-01-29T00:13:28;99784.84;;;5.42;100.00
34243;BME280;20504;43.214;27.920;2023-01-29T00:15:55;99801.81;;;5.21;100.00
34243;BME280;20504;43.214;27.920;2023-01-29T00:18:21;99895.31;;;4.92;100.00
34243;BME280;20504;43.214;27.920;2023-01-29T00:20:47;99873.75;;;5.03;100.00
34243;BME280;20504;43.214;27.920;2023-01-29T00:23:12;99810.97;;;5.30;100.00
34243;BME280;20504;43.214;27.920;2023-01-29T00:25:40;99803.75;;;5.33;100.00
34243;BME280;20504;43.214;27.920;2023-01-29T00:28:05;99814.63;;;5.43;100.00
34243;BME280;20504;43.214;27.920;2023-01-29T00:30:31;99826.31;;;5.37;100.00
34243;BME280;20504;43.214;27.920;2023-01-29T00:32:56;99810.44;;;5.39;100.00
34243;BME280;20504;43.214;27.920;2023-01-29T00:35:22;99883.22;;;5.23;100.00
34243;BME280;20504;43.214;27.920;2023-01-29T00:37:47;99866.81;;;5.17;100.00
34243;BME280;20504;43.214;27.920;2023-01-29T00:40:12;99855.66;;;5.30;100.00
34243;BME280;20504;43.214;27.920;2023-01-29T00:42:38;99843.28;;;5.32;100.00
34243;BME280;20504;43.214;27.920;2023-01-29T00:45:22;99860.31;;;5.25;100.00
34243;BME280;20504;43.214;27.920;2023-01-29T00:47:47;99810.56;;;5.53;100.00
34243;BME280;20504;43.214;27.920;2023-01-29T00:50:13;99828.97;;;5.53;100.00
34243;BME280;20504;43.214;27.920;2023-01-29T00:52:38;99809.63;;;5.54;100.00
34243;BME280;20504;43.214;27.920;2023-01-29T00:55:08;99857.31;;;5.48;100.00
34243;BME280;20504;43.214;27.920;2023-01-29T00:57:35;99834.41;;;5.50;100.00
34243;BME280;20504;43.214;27.920;2023-01-29T01:00:02;99846.97;;;5.61;100.00
34243;BME280;20504;43.214;27.920;2023-01-29T01:02:28;99894.03;;;5.50;100.00
34243;BME280;20504;43.214;27.920;2023-01-29T01:05:15;99887.16;;;5.47;100.00
34243;BME280;20504;43.214;27.920;2023-01-29T01:07:51;99873.78;;;5.67;100.00
34243;BME280;20504;43.214;27.920;2023-01-29T01:12:58;99892.13;;;5.69;100.00
34243;BME280;20504;43.214;27.920;2023-01-29T01:15:29;99920.56;;;5.62;100.00
34243;BME280;20504;43.214;27.920;2023-01-29T01:17:58;100033.13;;;5.04;100.00
34243;BME280;20504;43.214;27.920;2023-01-29T01:20:26;100052.19;;;4.90;100.00
34243;BME280;20504;43.214;27.920;2023-01-29T01:22:55;100023.47;;;5.04;100.00
34243;BME280;20504;43.214;27.920;2023-01-29T01:25:24;99975.22;;;5.23;100.00
34243;BME280;20504;43.214;27.920;2023-01-29T01:27:53;100019.00;;;5.06;100.00
34243;BME280;20504;43.214;27.920;2023-01-29T01:30:19;99998.16;;;5.02;100.00
34243;BME280;20504;43.214;27.920;2023-01-29T01:32:45;100038.22;;;4.90;100.00
34243;BME280;20504;43.214;27.920;2023-01-29T01:35:11;100045.22;;;4.72;100.00
34243;BME280;20504;43.214;27.920;2023-01-29T01:37:39;100013.41;;;4.95;100.00
34243;BME280;20504;43.214;27.920;2023-01-29T01:40:07;99978.31;;;5.13;100.00
34243;BME280;20504;43.214;27.920;2023-01-29T01:42:39;99989.59;;;4.98;100.00
34243;BME280;20504;43.214;27.920;2023-01-29T01:45:07;99964.63;;;5.24;100.00
34243;BME280;20504;43.214;27.920;2023-01-29T01:50:26;100019.34;;;4.99;100.00
34243;BME280;20504;43.214;27.920;2023-01-29T01:52:57;100019.56;;;4.77;100.00
34243;BME280;20504;43.214;27.920;2023-01-29T01:55:27;99999.41;;;4.95;100.00
34243;BME280;20504;43.214;27.920;2023-01-29T01:58:09;99981.03;;;5.12;100.00
34243;BME280;20504;43.214;27.920;2023-01-29T02:00:36;99962.63;;;5.12;100.00
34243;BME280;20504;43.214;27.920;2023-01-29T02:03:02;99978.84;;;5.20;100.00
34243;BME280;20504;43.214;27.920;2023-01-29T02:05:47;99967.94;;;5.28;100.00
34243;BME280;20504;43.214;27.920;2023-01-29T02:08:46;99977.31;;;5.16;100.00
34243;BME280;20504;43.214;27.920;2023-01-29T02:11:36;99929.19;;;5.31;100.00
34243;BME280;20504;43.214;27.920;2023-01-29T02:14:01;99962.13;;;5.38;100.00
34243;BME280;20504;43.214;27.920;2023-01-29T02:16:27;100064.50;;;4.90;100.00
34243;BME280;20504;43.214;27.920;2023-01-29T02:18:53;99977.06;;;5.38;100.00
34243;BME280;20504;43.214;27.920;2023-01-29T02:27:06;99998.41;;;5.32;100.00
34243;BME280;20504;43.214;27.920;2023-01-29T02:29:42;100052.00;;;4.76;100.00
34243;BME280;20504;43.214;27.920;2023-01-29T02:35:13;99983.47;;;5.32;100.00
34243;BME280;20504;43.214;27.920;2023-01-29T02:45:59;100025.56;;;5.15;100.00
34243;BME280;20504;43.214;27.920;2023-01-29T02:48:38;100110.59;;;4.59;100.00
34243;BME280;20504;43.214;27.920;2023-01-29T02:51:12;100084.63;;;4.34;100.00
34243;BME280;20504;43.214;27.920;2023-01-29T02:53:57;100042.03;;;4.82;100.00
34243;BME280;20504;43.214;27.920;2023-01-29T02:56:29;100061.84;;;4.53;100.00
34243;BME280;20504;43.214;27.920;2023-01-29T02:59:04;100081.56;;;4.43;100.00
34243;BME280;20504;43.214;27.920;2023-01-29T03:01:37;100103.47;;;4.42;100.00
34243;BME280;20504;43.214;27.920;2023-01-29T03:04:08;100101.06;;;4.38;100.00
34243;BME280;20504;43.214;27.920;2023-01-29T03:06:50;100107.78;;;4.24;100.00
34243;BME280;20504;43.214;27.920;2023-01-29T03:09:38;100101.91;;;4.19;100.00
34243;BME280;20504;43.214;27.920;2023-01-29T03:12:27;100115.44;;;4.10;100.00
34243;BME280;20504;43.214;27.920;2023-01-29T03:15:00;100091.78;;;4.31;100.00
34243;BME280;20504;43.214;27.920;2023-01-29T03:17:50;100116.88;;;4.17;100.00
34243;BME280;20504;43.214;27.920;2023-01-29T03:20:22;100045.94;;;4.38;100.00
34243;BME280;20504;43.214;27.920;2023-01-29T03:22:53;100109.22;;;4.13;100.00
34243;BME280;20504;43.214;27.920;2023-01-29T03:25:23;100064.22;;;4.20;100.00
34243;BME280;20504;43.214;27.920;2023-01-29T03:28:12;100038.84;;;4.40;100.00
34243;BME280;20504;43.214;27.920;2023-01-29T03:31:00;100051.63;;;4.29;100.00
34243;BME280;20504;43.214;27.920;2023-01-29T03:34:09;100060.97;;;4.15;100.00
34243;BME280;20504;43.214;27.920;2023-01-29T03:36:51;100065.31;;;4.16;100.00
34243;BME280;20504;43.214;27.920;2023-01-29T03:39:20;100082.78;;;3.97;100.00
34243;BME280;20504;43.214;27.920;2023-01-29T03:41:56;100104.78;;;3.94;100.00
34243;BME280;20504;43.214;27.920;2023-01-29T03:47:23;100092.13;;;3.84;100.00
34243;BME280;20504;43.214;27.920;2023-01-29T03:50:04;100095.59;;;3.84;100.00
34243;BME280;20504;43.214;27.920;2023-01-29T03:52:45;100068.84;;;3.76;100.00
34243;BME280;20504;43.214;27.920;2023-01-29T03:55:48;100116.44;;;3.67;100.00
34243;BME280;20504;43.214;27.920;2023-01-29T03:58:24;100019.19;;;3.92;100.00
34243;BME280;20504;43.214;27.920;2023-01-29T04:00:57;100077.16;;;3.86;100.00
34243;BME280;20504;43.214;27.920;2023-01-29T04:03:34;100088.84;;;3.79;100.00
34243;BME280;20504;43.214;27.920;2023-01-29T04:08:37;100097.16;;;3.68;100.00
34243;BME280;20504;43.214;27.920;2023-01-29T04:11:10;100061.84;;;3.56;100.00
34243;BME280;20504;43.214;27.920;2023-01-29T04:13:37;100057.69;;;3.51;100.00
34243;BME280;20504;43.214;27.920;2023-01-29T04:16:06;100063.41;;;3.81;100.00
34243;BME280;20504;43.214;27.920;2023-01-29T04:18:35;100049.97;;;3.48;100.00
34243;BME280;20504;43.214;27.920;2023-01-29T04:21:01;100023.34;;;3.77;100.00
34243;BME280;20504;43.214;27.920;2023-01-29T04:23:26;100007.63;;;3.96;100.00
34243;BME280;20504;43.214;27.920;2023-01-29T04:31:54;99976.19;;;4.32;100.00
34243;BME280;20504;43.214;27.920;2023-01-29T04:34:28;100042.81;;;4.11;100.00
34243;BME280;20504;43.214;27.920;2023-01-29T04:37:15;99981.38;;;4.34;100.00
34243;BME280;20504;43.214;27.920;2023-01-29T04:39:48;99934.38;;;4.46;100.00
34243;BME280;20504;43.214;27.920;2023-01-29T04:42:27;99937.50;;;4.72;100.00
34243;BME280;20504;43.214;27.920;2023-01-29T04:45:15;99936.81;;;4.68;100.00
34243;BME280;20504;43.214;27.920;2023-01-29T04:47:48;99961.56;;;4.63;100.00
34243;BME280;20504;43.214;27.920;2023-01-29T04:50:21;99973.31;;;4.55;100.00
34243;BME280;20504;43.214;27.920;2023-01-29T04:53:17;100008.41;;;4.36;100.00
34243;BME280;20504;43.214;27.920;2023-01-29T04:55:56;99954.94;;;4.55;100.00
34243;BME280;20504;43.214;27.920;2023-01-29T05:00:52;99876.59;;;4.98;100.00
34243;BME280;20504;43.214;27.920;2023-01-29T05:03:20;99911.06;;;4.92;100.00
34243;BME280;20504;43.214;27.920;2023-01-29T05:05:49;99953.06;;;4.57;100.00
34243;BME280;20504;43.214;27.920;2023-01-29T05:08:18;99938.28;;;4.74;100.00
34243;BME280;20504;43.214;27.920;2023-01-29T05:10:47;100002.06;;;4.40;100.00
34243;BME280;20504;43.214;27.920;2023-01-29T05:13:14;100023.72;;;4.45;100.00
34243;BME280;20504;43.214;27.920;2023-01-29T05:16:03;99992.84;;;4.50;100.00
34243;BME280;20504;43.214;27.920;2023-01-29T05:18:30;99946.38;;;4.69;100.00
34243;BME280;20504;43.214;27.920;2023-01-29T05:21:00;99948.53;;;4.78;100.00
34243;BME280;20504;43.214;27.920;2023-01-29T05:23:27;99951.16;;;4.61;100.00
34243;BME280;20504;43.214;27.920;2023-01-29T05:25:52;99990.53;;;4.61;100.00
34243;BME280;20504;43.214;27.920;2023-01-29T05:28:18;99990.47;;;4.63;100.00
34243;BME280;20504;43.214;27.920;2023-01-29T05:30:46;99922.41;;;4.58;100.00
34243;BME280;20504;43.214;27.920;2023-01-29T05:33:23;99990.38;;;4.64;100.00
34243;BME280;20504;43.214;27.920;2023-01-29T05:35:49;100007.38;;;4.57;100.00
34243;BME280;20504;43.214;27.920;2023-01-29T05:38:15;99993.03;;;4.64;100.00
34243;BME280;20504;43.214;27.920;2023-01-29T05:40:42;100025.06;;;4.53;100.00
34243;BME280;20504;43.214;27.920;2023-01-29T05:43:19;99991.13;;;4.68;100.00
34243;BME280;20504;43.214;27.920;2023-01-29T05:46:00;99982.75;;;4.60;100.00
34243;BME280;20504;43.214;27.920;2023-01-29T05:48:27;99976.28;;;4.67;100.00
34243;BME280;20504;43.214;27.920;2023-01-29T05:50:53;99978.59;;;4.73;100.00
34243;BME280;20504;43.214;27.920;2023-01-29T05:53:23;99938.44;;;4.88;100.00
34243;BME280;20504;43.214;27.920;2023-01-29T05:55:49;99988.19;;;4.74;100.00
34243;BME280;20504;43.214;27.920;2023-01-29T05:58:14;99990.81;;;4.74;100.00
34243;BME280;20504;43.214;27.920;2023-01-29T06:00:40;99950.56;;;4.91;100.00
34243;BME280;20504;43.214;27.920;2023-01-29T06:03:06;100023.22;;;4.55;100.00
34243;BME280;20504;43.214;27.920;2023-01-29T06:05:32;99999.03;;;4.85;100.00
34243;BME280;20504;43.214;27.920;2023-01-29T06:07:57;99961.00;;;5.09;100.00
34243;BME280;20504;43.214;27.920;2023-01-29T06:10:22;99946.41;;;5.21;100.00
34243;BME280;20504;43.214;27.920;2023-01-29T06:12:48;100010.94;;;4.92;100.00
34243;BME280;20504;43.214;27.920;2023-01-29T06:15:14;100038.22;;;4.90;100.00
34243;BME280;20504;43.214;27.920;2023-01-29T06:17:40;100037.28;;;4.91;100.00
34243;BME280;20504;43.214;27.920;2023-01-29T06:20:09;100023.75;;;4.98;100.00
34243;BME280;20504;43.214;27.920;2023-01-29T06:22:35;99974.00;;;5.12;100.00
34243;BME280;20504;43.214;27.920;2023-01-29T06:25:00;99922.41;;;5.27;100.00
34243;BME280;20504;43.214;27.920;2023-01-29T06:27:26;99974.22;;;5.42;100.00
34243;BME280;20504;43.214;27.920;2023-01-29T06:29:52;99989.13;;;5.42;100.00
34243;BME280;20504;43.214;27.920;2023-01-29T06:32:18;100018.19;;;5.39;100.00
34243;BME280;20504;43.214;27.920;2023-01-29T06:34:43;99998.88;;;5.40;100.00
34243;BME280;20504;43.214;27.920;2023-01-29T06:37:09;100035.22;;;5.32;100.00
34243;BME280;20504;43.214;27.920;2023-01-29T06:39:34;100014.78;;;5.37;100.00
34243;BME280;20504;43.214;27.920;2023-01-29T06:42:00;100030.88;;;5.48;100.00
34243;BME280;20504;43.214;27.920;2023-01-29T06:44:25;100038.19;;;5.43;100.00
34243;BME280;20504;43.214;27.920;2023-01-29T06:46:51;100011.44;;;5.68;100.00
34243;BME280;20504;43.214;27.920;2023-01-29T06:49:16;100094.00;;;5.31;100.00
34243;BME280;20504;43.214;27.920;2023-01-29T06:51:42;100027.56;;;5.62;100.00
34243;BME280;20504;43.214;27.920;2023-01-29T06:54:09;100015.38;;;5.76;100.00
34243;BME280;20504;43.214;27.920;2023-01-29T06:56:34;100086.81;;;5.52;100.00
34243;BME280;20504;43.214;27.920;2023-01-29T06:59:00;100082.03;;;5.42;100.00
34243;BME280;20504;43.214;27.920;2023-01-29T07:01:26;100121.91;;;5.33;100.00
34243;BME280;20504;43.214;27.920;2023-01-29T07:03:51;100188.75;;;5.10;100.00
34243;BME280;20504;43.214;27.920;2023-01-29T07:06:18;100188.00;;;5.08;100.00
34243;BME280;20504;43.214;27.920;2023-01-29T07:08:44;100176.09;;;5.18;100.00
34243;BME280;20504;43.214;27.920;2023-01-29T07:11:09;100143.41;;;5.24;100.00
34243;BME280;20504;43.214;27.920;2023-01-29T07:13:35;100107.16;;;5.48;100.00
34243;BME280;20504;43.214;27.920;2023-01-29T07:16:03;100122.47;;;5.57;100.00
34243;BME280;20504;43.214;27.920;2023-01-29T07:18:29;100125.34;;;5.53;100.00
34243;BME280;20504;43.214;27.920;2023-01-29T07:20:56;100120.00;;;5.54;100.00
34243;BME280;20504;43.214;27.920;2023-01-29T07:23:21;100132.78;;;5.62;100.00
34243;BME280;20504;43.214;27.920;2023-01-29T07:25:47;100191.44;;;5.28;100.00
34243;BME280;20504;43.214;27.920;2023-01-29T07:28:16;100159.25;;;5.59;100.00
34243;BME280;20504;43.214;27.920;2023-01-29T07:30:42;100171.94;;;5.68;100.00
34243;BME280;20504;43.214;27.920;2023-01-29T07:33:08;100206.03;;;5.52;100.00
34243;BME280;20504;43.214;27.920;2023-01-29T07:35:41;100227.38;;;5.46;100.00
34243;BME280;20504;43.214;27.920;2023-01-29T07:38:08;100207.28;;;5.45;100.00
34243;BME280;20504;43.214;27.920;2023-01-29T07:40:33;100241.09;;;5.53;100.00
34243;BME280;20504;43.214;27.920;2023-01-29T07:43:00;100207.59;;;5.56;100.00
34243;BME280;20504;43.214;27.920;2023-01-29T07:45:27;100295.56;;;5.32;100.00
34243;BME280;20504;43.214;27.920;2023-01-29T07:47:54;100327.72;;;5.18;100.00
34243;BME280;20504;43.214;27.920;2023-01-29T07:50:22;100270.41;;;5.45;100.00
34243;BME280;20504;43.214;27.920;2023-01-29T07:52:48;100281.16;;;5.40;100.00
34243;BME280;20504;43.214;27.920;2023-01-29T07:55:13;100310.06;;;5.40;100.00
34243;BME280;20504;43.214;27.920;2023-01-29T07:57:39;100306.22;;;5.47;100.00
34243;BME280;20504;43.214;27.920;2023-01-29T08:00:05;100320.63;;;5.39;100.00
34243;BME280;20504;43.214;27.920;2023-01-29T08:02:30;100319.06;;;5.35;100.00
34243;BME280;20504;43.214;27.920;2023-01-29T08:04:56;100281.41;;;5.53;100.00
34243;BME280;20504;43.214;27.920;2023-01-29T08:07:21;100326.56;;;5.44;100.00
34243;BME280;20504;43.214;27.920;2023-01-29T08:09:47;100328.53;;;5.39;100.00
34243;BME280;20504;43.214;27.920;2023-01-29T08:12:13;100329.19;;;5.25;100.00
34243;BME280;20504;43.214;27.920;2023-01-29T08:14:39;100325.41;;;5.31;100.00
34243;BME280;20504;43.214;27.920;2023-01-29T08:17:04;100329.53;;;5.36;100.00
34243;BME280;20504;43.214;27.920;2023-01-29T08:19:30;100368.09;;;5.17;100.00
34243;BME280;20504;43.214;27.920;2023-01-29T08:21:55;100345.28;;;5.17;100.00
34243;BME280;20504;43.214;27.920;2023-01-29T08:24:21;100355.81;;;5.17;100.00
34243;BME280;20504;43.214;27.920;2023-01-29T08:26:46;100370.81;;;4.95;100.00
34243;BME280;20504;43.214;27.920;2023-01-29T08:29:12;100327.47;;;5.24;100.00
34243;BME280;20504;43.214;27.920;2023-01-29T08:31:37;100301.44;;;5.37;100.00
34243;BME280;20504;43.214;27.920;2023-01-29T08:34:03;100259.88;;;5.45;100.00
34243;BME280;20504;43.214;27.920;2023-01-29T08:36:28;100278.16;;;5.29;100.00
34243;BME280;20504;43.214;27.920;2023-01-29T08:38:54;100328.84;;;4.94;100.00
34243;BME280;20504;43.214;27.920;2023-01-29T08:41:20;100323.31;;;5.00;100.00
34243;BME280;20504;43.214;27.920;2023-01-29T08:43:45;100308.28;;;5.03;100.00
34243;BME280;20504;43.214;27.920;2023-01-29T08:46:11;100297.44;;;4.91;100.00
34243;BME280;20504;43.214;27.920;2023-01-29T08:48:36;100269.69;;;5.04;100.00
34243;BME280;20504;43.214;27.920;2023-01-29T08:51:02;100258.31;;;5.03;100.00
34243;BME280;20504;43.214;27.920;2023-01-29T08:53:30;100260.78;;;4.88;100.00
34243;BME280;20504;43.214;27.920;2023-01-29T08:55:56;100253.19;;;5.00;100.00
34243;BME280;20504;43.214;27.920;2023-01-29T08:58:21;100201.06;;;4.91;100.00
34243;BME280;20504;43.214;27.920;2023-01-29T09:00:46;100163.56;;;4.88;100.00
34243;BME280;20504;43.214;27.920;2023-01-29T09:03:12;100196.16;;;5.02;100.00
34243;BME280;20504;43.214;27.920;2023-01-29T09:05:39;100233.66;;;4.87;100.00
34243;BME280;20504;43.214;27.920;2023-01-29T09:08:05;100198.00;;;5.00;100.00
34243;BME280;20504;43.214;27.920;2023-01-29T09:10:31;100198.59;;;4.88;100.00
34243;BME280;20504;43.214;27.920;2023-01-29T09:12:56;100183.16;;;4.99;100.00
34243;BME280;20504;43.214;27.920;2023-01-29T09:15:22;100137.38;;;4.86;100.00
34243;BME280;20504;43.214;27.920;2023-01-29T09:17:48;100158.72;;;4.78;100.00
34243;BME280;20504;43.214;27.920;2023-01-29T09:20:14;100166.75;;;4.94;100.00
34243;BME280;20504;43.214;27.920;2023-01-29T09:22:40;100150.50;;;5.05;100.00
34243;BME280;20504;43.214;27.920;2023-01-29T09:25:06;100112.44;;;5.12;100.00
34243;BME280;20504;43.214;27.920;2023-01-29T09:27:32;100148.72;;;4.86;100.00
34243;BME280;20504;43.214;27.920;2023-01-29T09:29:57;100165.03;;;5.12;100.00
34243;BME280;20504;43.214;27.920;2023-01-29T09:32:23;100121.22;;;5.30;100.00
34243;BME280;20504;43.214;27.920;2023-01-29T09:34:48;100105.53;;;5.45;100.00
34243;BME280;20504;43.214;27.920;2023-01-29T09:37:14;100110.09;;;5.25;100.00
34243;BME280;20504;43.214;27.920;2023-01-29T09:39:42;100122.41;;;5.41;100.00
34243;BME280;20504;43.214;27.920;2023-01-29T09:42:33;100113.59;;;5.60;100.00
34243;BME280;20504;43.214;27.920;2023-01-29T09:45:13;100125.34;;;5.53;100.00
34243;BME280;20504;43.214;27.920;2023-01-29T09:47:39;100101.13;;;5.63;100.00
34243;BME280;20504;43.214;27.920;2023-01-29T09:50:22;100088.19;;;5.76;100.00
34243;BME280;20504;43.214;27.920;2023-01-29T09:55:59;100227.41;;;5.27;100.00
34243;BME280;20504;43.214;27.920;2023-01-29T09:58:30;100168.00;;;5.59;100.00
34243;BME280;20504;43.214;27.920;2023-01-29T10:01:12;100176.81;;;5.75;100.00
34243;BME280;20504;43.214;27.920;2023-01-29T10:11:56;100257.50;;;5.39;100.00
34243;BME280;20504;43.214;27.920;2023-01-29T10:25:20;100317.16;;;5.38;100.00
34243;BME280;20504;43.214;27.920;2023-01-29T10:27:51;100317.75;;;5.45;100.00
34243;BME280;20504;43.214;27.920;2023-01-29T10:33:03;100305.56;;;5.61;100.00
34243;BME280;20504;43.214;27.920;2023-01-29T10:35:36;100351.50;;;5.35;100.00
34243;BME280;20504;43.214;27.920;2023-01-29T10:38:27;100332.53;;;5.47;100.00
34243;BME280;20504;43.214;27.920;2023-01-29T10:41:11;100329.66;;;5.52;100.00
34243;BME280;20504;43.214;27.920;2023-01-29T10:44:00;100334.31;;;5.47;100.00
34243;BME280;20504;43.214;27.920;2023-01-29T10:49:37;100329.34;;;5.41;100.00
34243;BME280;20504;43.214;27.920;2023-01-29T10:55:08;100335.63;;;5.56;100.00
34243;BME280;20504;43.214;27.920;2023-01-29T10:57:57;100304.34;;;5.68;100.00
34243;BME280;20504;43.214;27.920;2023-01-29T11:00:29;100367.34;;;5.34;100.00
34243;BME280;20504;43.214;27.920;2023-01-29T11:03:15;100454.47;;;5.06;100.00
34243;BME280;20504;43.214;27.920;2023-01-29T11:08:27;100375.16;;;5.54;100.00
34243;BME280;20504;43.214;27.920;2023-01-29T11:11:21;100423.22;;;5.39;100.00
34243;BME280;20504;43.214;27.920;2023-01-29T11:14:04;100439.63;;;5.25;100.00
34243;BME280;20504;43.214;27.920;2023-01-29T11:16:43;100463.09;;;5.09;100.00
34243;BME280;20504;43.214;27.920;2023-01-29T11:19:11;100476.09;;;5.12;100.00
34243;BME280;20504;43.214;27.920;2023-01-29T11:22:19;100407.16;;;5.45;100.00
34243;BME280;20504;43.214;27.920;2023-01-29T11:24:46;100384.66;;;5.58;100.00
34243;BME280;20504;43.214;27.920;2023-01-29T11:27:33;100392.41;;;5.61;100.00
34243;BME280;20504;43.214;27.920;2023-01-29T11:30:00;100346.81;;;5.80;100.00
34243;BME280;20504;43.214;27.920;2023-01-29T11:32:29;100347.38;;;5.67;100.00
34243;BME280;20504;43.214;27.920;2023-01-29T11:35:03;100373.69;;;5.67;100.00
34243;BME280;20504;43.214;27.920;2023-01-29T11:40:00;100410.38;;;5.52;100.00
34243;BME280;20504;43.214;27.920;2023-01-29T11:42:30;100430.91;;;5.43;100.00
34243;BME280;20504;43.214;27.920;2023-01-29T11:44:55;100400.56;;;5.55;100.00
34243;BME280;20504;43.214;27.920;2023-01-29T11:47:28;100430.84;;;5.45;100.00
34243;BME280;20504;43.214;27.920;2023-01-29T11:49:56;100409.38;;;5.54;100.00
34243;BME280;20504;43.214;27.920;2023-01-29T11:52:34;100383.28;;;5.68;100.00
34243;BME280;20504;43.214;27.920;2023-01-29T11:55:16;100438.09;;;5.40;100.00
34243;BME280;20504;43.214;27.920;2023-01-29T11:57:47;100419.03;;;5.54;100.00
34243;BME280;20504;43.214;27.920;2023-01-29T12:00:25;100390.03;;;5.74;100.00
34243;BME280;20504;43.214;27.920;2023-01-29T12:05:29;100373.59;;;5.88;100.00
34243;BME280;20504;43.214;27.920;2023-01-29T12:07:56;100399.53;;;5.78;100.00
34243;BME280;20504;43.214;27.920;2023-01-29T12:10:42;100450.47;;;5.57;100.00
34243;BME280;20504;43.214;27.920;2023-01-29T12:15:43;100450.75;;;5.51;100.00
34243;BME280;20504;43.214;27.920;2023-01-29T12:18:21;100428.16;;;5.65;100.00
34243;BME280;20504;43.214;27.920;2023-01-29T12:20:54;100458.94;;;5.44;100.00
34243;BME280;20504;43.214;27.920;2023-01-29T12:23:35;100461.03;;;5.36;100.00
34243;BME280;20504;43.214;27.920;2023-01-29T12:26:08;100458.75;;;5.29;100.00
34243;BME280;20504;43.214;27.920;2023-01-29T12:31:49;100510.53;;;5.06;100.00
34243;BME280;20504;43.214;27.920;2023-01-29T12:34:34;100449.16;;;5.28;100.00
34243;BME280;20504;43.214;27.920;2023-01-29T12:40:16;100449.84;;;5.31;100.00
34243;BME280;20504;43.214;27.920;2023-01-29T12:42:47;100468.69;;;5.22;100.00
34243;BME280;20504;43.214;27.920;2023-01-29T12:45:20;100456.91;;;5.10;100.00
34243;BME280;20504;43.214;27.920;2023-01-29T12:47:54;100507.03;;;4.85;100.00
34243;BME280;20504;43.214;27.920;2023-01-29T12:50:26;100484.75;;;4.94;100.00
34243;BME280;20504;43.214;27.920;2023-01-29T12:52:56;100448.66;;;5.18;100.00
34243;BME280;20504;43.214;27.920;2023-01-29T12:55:37;100451.84;;;5.06;100.00
34243;BME280;20504;43.214;27.920;2023-01-29T12:58:11;100467.41;;;5.10;100.00
34243;BME280;20504;43.214;27.920;2023-01-29T13:00:42;100452.16;;;4.98;100.00
34243;BME280;20504;43.214;27.920;2023-01-29T13:03:25;100462.16;;;5.10;100.00
34243;BME280;20504;43.214;27.920;2023-01-29T13:06:05;100424.56;;;5.29;100.00
34243;BME280;20504;43.214;27.920;2023-01-29T13:08:40;100432.72;;;5.23;100.00
34243;BME280;20504;43.214;27.920;2023-01-29T13:11:12;100456.56;;;4.98;100.00
34243;BME280;20504;43.214;27.920;2023-01-29T13:13:47;100405.16;;;5.31;100.00
34243;BME280;20504;43.214;27.920;2023-01-29T13:16:18;100417.88;;;5.22;100.00
34243;BME280;20504;43.214;27.920;2023-01-29T13:19:02;100437.06;;;5.24;100.00
34243;BME280;20504;43.214;27.920;2023-01-29T13:21:34;100458.47;;;5.14;100.00
34243;BME280;20504;43.214;27.920;2023-01-29T13:24:06;100449.53;;;5.18;100.00
34243;BME280;20504;43.214;27.920;2023-01-29T13:26:35;100447.66;;;5.22;100.00
34243;BME280;20504;43.214;27.920;2023-01-29T13:29:01;100479.13;;;5.03;100.00
34243;BME280;20504;43.214;27.920;2023-01-29T13:31:36;100494.94;;;5.02;100.00
34243;BME280;20504;43.214;27.920;2023-01-29T13:34:14;100456.38;;;5.23;100.00
34243;BME280;20504;43.214;27.920;2023-01-29T13:36:54;100427.56;;;5.40;100.00
34243;BME280;20504;43.214;27.920;2023-01-29T13:39:35;100386.34;;;5.40;100.00
34243;BME280;20504;43.214;27.920;2023-01-29T13:42:18;100432.25;;;5.52;100.00
34243;BME280;20504;43.214;27.920;2023-01-29T13:44:53;100437.53;;;5.52;100.00
34243;BME280;20504;43.214;27.920;2023-01-29T13:52:39;100429.00;;;5.66;100.00
34243;BME280;20504;43.214;27.920;2023-01-29T14:02:41;100461.72;;;5.99;100.00
34243;BME280;20504;43.214;27.920;2023-01-29T14:10:41;100577.72;;;5.74;100.00
34243;BME280;20504;43.214;27.920;2023-01-29T14:15:45;100603.94;;;5.77;100.00
34243;BME280;20504;43.214;27.920;2023-01-29T14:18:18;100597.22;;;5.91;100.00
34243;BME280;20504;43.214;27.920;2023-01-29T14:23:39;100627.50;;;5.81;100.00
34243;BME280;20504;43.214;27.920;2023-01-29T14:26:29;100652.34;;;5.73;100.00
34243;BME280;20504;43.214;27.920;2023-01-29T14:34:30;100639.34;;;5.91;100.00
34243;BME280;20504;43.214;27.920;2023-01-29T14:37:24;100641.81;;;5.95;100.00
34243;BME280;20504;43.214;27.920;2023-01-29T14:39:51;100644.72;;;5.67;100.00
34243;BME280;20504;43.214;27.920;2023-01-29T14:44:58;100694.53;;;5.72;100.00
34243;BME280;20504;43.214;27.920;2023-01-29T14:52:57;100665.53;;;5.94;100.00
34243;BME280;20504;43.214;27.920;2023-01-29T14:57:49;100634.09;;;5.91;100.00
34243;BME280;20504;43.214;27.920;2023-01-29T15:00:26;100654.91;;;5.97;100.00
34243;BME280;20504;43.214;27.920;2023-01-29T15:02:52;100639.81;;;6.00;100.00
34243;BME280;20504;43.214;27.920;2023-01-29T15:05:24;100651.97;;;5.83;100.00
34243;BME280;20504;43.214;27.920;2023-01-29T15:07:57;100683.81;;;5.76;100.00